createdAt,value
2022-10-08T00:01:32.250Z,101383.81
2022-10-08T00:04:00.822Z,101382.44
2022-10-08T00:06:33.365Z,101377.63
2022-10-08T00:09:03.277Z,101380.25
2022-10-08T00:11:33.244Z,101377.69
2022-10-08T00:14:02.149Z,101377.66
2022-10-08T00:16:33.776Z,101374.63
2022-10-08T00:19:03.949Z,101379.09
2022-10-08T00:21:35.522Z,101374.28
2022-10-08T00:24:05.119Z,101377.69
2022-10-08T00:26:37.599Z,101385.69
2022-10-08T00:29:09.757Z,101370.97
2022-10-08T00:31:40.511Z,101385.84
2022-10-08T00:34:09.983Z,101382.09
2022-10-08T00:36:40.524Z,101389.50
2022-10-08T00:39:15.077Z,101376.00
2022-10-08T00:41:45.240Z,101377.50
2022-10-08T00:44:59.524Z,101369.50
2022-10-08T00:47:42.199Z,101362.78
2022-10-08T00:50:14.716Z,101359.03
2022-10-08T00:52:47.510Z,101351.47
2022-10-08T00:55:18.724Z,101354.59
2022-10-08T00:57:46.891Z,101358.34
2022-10-08T01:00:18.025Z,101367.09
2022-10-08T01:02:46.505Z,101373.38
2022-10-08T01:05:17.599Z,101379.41
2022-10-08T01:07:51.932Z,101377.88
2022-10-08T01:10:28.636Z,101375.69
2022-10-08T01:13:11.233Z,101384.38
2022-10-08T01:15:45.733Z,101382.16
2022-10-08T01:18:23.375Z,101387.78
2022-10-08T01:21:04.858Z,101367.94
2022-10-08T01:23:55.277Z,101371.44
2022-10-08T01:26:54.023Z,101376.25
2022-10-08T01:29:28.793Z,101376.34
2022-10-08T01:32:03.292Z,101381.84
2022-10-08T01:34:38.248Z,101378.78
2022-10-08T01:37:10.668Z,101370.56
2022-10-08T01:39:41.598Z,101370.72
2022-10-08T01:42:12.086Z,101371.41
2022-10-08T01:44:46.368Z,101376.38
2022-10-08T01:47:19.756Z,101376.75
2022-10-08T01:49:54.711Z,101382.03
2022-10-08T01:52:26.836Z,101374.69
2022-10-08T01:54:58.813Z,101381.19
2022-10-08T01:57:29.183Z,101379.47
2022-10-08T02:00:03.905Z,101389.03
2022-10-08T02:02:40.802Z,101381.69
2022-10-08T02:05:09.339Z,101390.94
2022-10-08T02:07:38.912Z,101381.34
2022-10-08T02:10:10.013Z,101380.34
2022-10-08T02:12:40.146Z,101385.81
2022-10-08T02:15:12.977Z,101388.72
2022-10-08T02:17:50.558Z,101380.16
2022-10-08T02:20:23.767Z,101386.44
2022-10-08T02:23:00.420Z,101388.19
2022-10-08T02:25:34.636Z,101394.19
2022-10-08T02:28:10.456Z,101390.41
2022-10-08T02:30:47.852Z,101395.56
2022-10-08T02:33:22.811Z,101393.50
2022-10-08T02:35:54.982Z,101395.03
2022-10-08T02:38:28.459Z,101401.56
2022-10-08T02:41:02.116Z,101400.69
2022-10-08T02:43:34.426Z,101398.81
2022-10-08T02:46:09.770Z,101403.25
2022-10-08T02:48:42.385Z,101403.75
2022-10-08T02:51:18.695Z,101398.47
2022-10-08T02:53:48.255Z,101395.75
2022-10-08T02:56:21.600Z,101396.75
2022-10-08T02:58:49.473Z,101403.94
2022-10-08T03:01:26.591Z,101404.09
2022-10-08T03:03:59.876Z,101407.03
2022-10-08T03:06:30.062Z,101406.84
2022-10-08T03:09:00.599Z,101411.63
2022-10-08T03:11:31.289Z,101417.28
2022-10-08T03:14:03.485Z,101417.44
2022-10-08T03:16:39.113Z,101416.25
2022-10-08T03:19:08.996Z,101418.31
2022-10-08T03:21:39.418Z,101417.09
2022-10-08T03:24:07.786Z,101416.59
2022-10-08T03:26:36.401Z,101418.31
2022-10-08T03:29:05.118Z,101429.09
2022-10-08T03:31:34.826Z,101428.72
2022-10-08T03:34:03.220Z,101427.69
2022-10-08T03:36:31.217Z,101435.59
2022-10-08T03:38:59.148Z,101428.22
2022-10-08T03:41:27.034Z,101415.75
2022-10-08T03:43:54.876Z,101426.00
2022-10-08T03:46:22.836Z,101428.91
2022-10-08T03:48:52.405Z,101432.84
2022-10-08T03:51:20.950Z,101429.09
2022-10-08T03:53:48.830Z,101428.03
2022-10-08T03:56:19.574Z,101432.66
2022-10-08T03:58:48.997Z,101430.78
2022-10-08T04:01:18.954Z,101440.53
2022-10-08T04:03:46.903Z,101435.94
2022-10-08T04:06:16.290Z,101442.75
2022-10-08T04:08:44.704Z,101439.00
2022-10-08T04:11:18.219Z,101443.47
2022-10-08T04:13:46.132Z,101434.03
2022-10-08T04:16:15.982Z,101435.06
2022-10-08T04:18:44.767Z,101439.88
2022-10-08T04:21:14.733Z,101440.53
2022-10-08T04:23:45.262Z,101452.69
2022-10-08T04:26:14.978Z,101447.03
2022-10-08T04:28:45.171Z,101448.25
2022-10-08T04:31:16.685Z,101448.22
2022-10-08T04:33:45.682Z,101445.00
2022-10-08T04:36:15.446Z,101444.47
2022-10-08T04:38:45.257Z,101455.59
2022-10-08T04:41:14.998Z,101450.31
2022-10-08T04:43:44.117Z,101462.06
2022-10-08T04:46:13.519Z,101459.84
2022-10-08T04:48:46.646Z,101459.66
2022-10-08T04:51:14.740Z,101457.25
2022-10-08T04:53:44.369Z,101461.22
2022-10-08T04:56:15.370Z,101464.13
2022-10-08T04:58:43.279Z,101463.72
2022-10-08T05:01:13.570Z,101461.28
2022-10-08T05:03:43.692Z,101467.28
2022-10-08T05:06:12.090Z,101468.50
2022-10-08T05:08:40.158Z,101469.19
2022-10-08T05:11:09.948Z,101484.41
2022-10-08T05:13:38.024Z,101484.41
2022-10-08T05:16:06.769Z,101489.84
2022-10-08T05:18:35.560Z,101488.47
2022-10-08T05:21:04.894Z,101491.72
2022-10-08T05:23:32.979Z,101493.06
2022-10-08T05:26:02.396Z,101497.56
2022-10-08T05:28:31.759Z,101499.91
2022-10-08T05:31:03.259Z,101501.59
2022-10-08T05:33:31.276Z,101505.69
2022-10-08T05:36:03.587Z,101503.22
2022-10-08T05:38:34.995Z,101506.53
2022-10-08T05:41:11.793Z,101508.22
2022-10-08T05:43:41.630Z,101518.75
2022-10-08T05:46:09.842Z,101515.91
2022-10-08T05:48:38.498Z,101512.63
2022-10-08T05:51:07.555Z,101518.28
2022-10-08T05:53:37.292Z,101519.22
2022-10-08T05:56:06.980Z,101517.56
2022-10-08T05:58:36.837Z,101522.63
2022-10-08T06:01:07.888Z,101522.34
2022-10-08T06:03:36.235Z,101528.22
2022-10-08T06:06:05.857Z,101526.97
2022-10-08T06:08:34.304Z,101529.88
2022-10-08T06:11:02.916Z,101545.75
2022-10-08T06:13:31.020Z,101537.91
2022-10-08T06:16:00.693Z,101536.75
2022-10-08T06:18:32.953Z,101552.91
2022-10-08T06:21:03.866Z,101553.00
2022-10-08T06:23:32.148Z,101559.09
2022-10-08T06:26:03.082Z,101569.69
2022-10-08T06:28:31.063Z,101568.69
2022-10-08T06:31:00.045Z,101570.69
2022-10-08T06:33:28.551Z,101580.09
2022-10-08T06:35:57.938Z,101586.84
2022-10-08T06:38:25.929Z,101588.81
2022-10-08T06:40:53.952Z,101599.56
2022-10-08T06:43:22.517Z,101611.13
2022-10-08T06:45:50.595Z,101622.28
2022-10-08T06:48:19.798Z,101627.56
2022-10-08T06:50:47.898Z,101627.25
2022-10-08T06:53:24.826Z,101633.47
2022-10-08T06:55:57.754Z,101626.25
2022-10-08T06:58:25.935Z,101638.63
2022-10-08T07:01:02.601Z,101633.56
2022-10-08T07:03:31.105Z,101624.41
2022-10-08T07:06:01.618Z,101628.47
2022-10-08T07:08:32.033Z,101641.34
2022-10-08T07:11:05.019Z,101628.22
2022-10-08T07:13:33.309Z,101647.69
2022-10-08T07:16:05.864Z,101658.47
2022-10-08T07:18:35.568Z,101655.97
2022-10-08T07:21:03.813Z,101666.44
2022-10-08T07:23:33.667Z,101662.19
2022-10-08T07:26:03.764Z,101666.59
2022-10-08T07:28:34.197Z,101674.53
2022-10-08T07:31:05.775Z,101666.88
2022-10-08T07:33:34.304Z,101665.25
2022-10-08T07:36:10.552Z,101670.75
2022-10-08T07:38:40.832Z,101687.97
2022-10-08T07:41:10.462Z,101687.88
2022-10-08T07:43:41.298Z,101688.25
2022-10-08T07:46:10.648Z,101687.72
2022-10-08T07:48:38.752Z,101685.47
2022-10-08T07:51:11.166Z,101689.78
2022-10-08T07:53:41.335Z,101695.78
2022-10-08T07:56:11.008Z,101700.38
2022-10-08T07:58:39.245Z,101697.28
2022-10-08T08:01:09.737Z,101696.84
2022-10-08T08:03:38.057Z,101700.72
2022-10-08T08:06:09.203Z,101698.81
2022-10-08T08:08:39.279Z,101717.38
2022-10-08T08:11:11.166Z,101715.88
2022-10-08T08:13:40.951Z,101729.72
2022-10-08T08:16:11.804Z,101740.94
2022-10-08T08:18:42.349Z,101744.22
2022-10-08T08:21:13.530Z,101749.47
2022-10-08T08:23:43.998Z,101749.22
2022-10-08T08:26:14.722Z,101758.06
2022-10-08T08:28:42.763Z,101760.19
2022-10-08T08:31:13.013Z,101764.84
2022-10-08T08:33:41.580Z,101771.22
2022-10-08T08:36:10.124Z,101769.47
2022-10-08T08:38:39.061Z,101775.81
2022-10-08T08:41:18.530Z,101787.09
2022-10-08T08:44:00.491Z,101788.78
2022-10-08T08:46:36.647Z,101787.75
2022-10-08T08:49:14.873Z,101789.81
2022-10-08T08:51:44.811Z,101784.84
2022-10-08T08:54:16.273Z,101792.56
2022-10-08T08:56:47.575Z,101796.66
2022-10-08T08:59:27.337Z,101792.22
2022-10-08T09:02:00.962Z,101794.31
2022-10-08T09:04:44.318Z,101795.75
2022-10-08T09:07:20.425Z,101804.13
2022-10-08T09:09:52.821Z,101795.44
2022-10-08T09:12:23.103Z,101802.78
2022-10-08T09:14:58.060Z,101806.91
2022-10-08T09:17:32.844Z,101803.34
2022-10-08T09:20:05.998Z,101807.28
2022-10-08T09:22:38.837Z,101816.97
2022-10-08T09:25:13.944Z,101819.72
2022-10-08T09:27:46.564Z,101830.44
2022-10-08T09:30:37.304Z,101823.59
2022-10-08T09:33:26.178Z,101827.59
2022-10-08T09:35:59.500Z,101822.47
2022-10-08T09:38:29.825Z,101835.81
2022-10-08T09:41:03.379Z,101839.84
2022-10-08T09:43:33.430Z,101853.13
2022-10-08T09:46:11.857Z,101853.31
2022-10-08T09:48:41.690Z,101850.75
2022-10-08T09:51:16.751Z,101865.84
2022-10-08T09:53:47.460Z,101870.47
2022-10-08T09:56:16.651Z,101868.41
2022-10-08T09:58:53.761Z,101872.69
2022-10-08T10:01:25.172Z,101874.25
2022-10-08T10:03:56.229Z,101877.81
2022-10-08T10:06:29.675Z,101885.38
2022-10-08T10:09:05.003Z,101887.09
2022-10-08T10:11:39.081Z,101883.84
2022-10-08T10:14:15.586Z,101879.56
2022-10-08T10:16:47.666Z,101878.69
2022-10-08T10:19:19.944Z,101880.03
2022-10-08T10:21:55.885Z,101878.38
2022-10-08T10:24:45.736Z,101885.38
2022-10-08T10:27:19.517Z,101880.63
2022-10-08T10:29:56.210Z,101880.94
2022-10-08T10:32:32.438Z,101880.94
2022-10-08T10:35:08.508Z,101889.03
2022-10-08T10:37:44.877Z,101900.09
2022-10-08T10:40:37.823Z,101887.09
2022-10-08T10:43:19.098Z,101901.38
2022-10-08T10:45:52.097Z,101893.84
2022-10-08T10:48:21.523Z,101898.66
2022-10-08T10:51:05.175Z,101896.13
2022-10-08T10:53:40.506Z,101902.78
2022-10-08T10:56:15.997Z,101923.91
2022-10-08T10:59:00.757Z,101919.25
2022-10-08T11:01:36.223Z,101927.16
2022-10-08T11:04:13.674Z,101922.53
2022-10-08T11:06:59.733Z,101937.81
2022-10-08T11:09:42.042Z,101945.84
2022-10-08T11:12:27.106Z,101944.75
2022-10-08T11:15:04.724Z,101950.19
2022-10-08T11:18:03.704Z,101946.94
2022-10-08T11:20:57.055Z,101949.94
2022-10-08T11:23:41.627Z,101948.53
2022-10-08T11:26:22.760Z,101966.13
2022-10-08T11:29:02.579Z,101973.94
2022-10-08T11:31:38.256Z,101978.34
2022-10-08T11:34:19.592Z,101989.97
2022-10-08T11:36:57.023Z,101989.78
2022-10-08T11:39:33.568Z,101989.09
2022-10-08T11:42:11.743Z,101970.97
2022-10-08T11:44:40.200Z,101974.72
2022-10-08T11:47:49.229Z,101975.31
2022-10-08T11:50:36.053Z,101980.22
2022-10-08T11:53:21.192Z,101977.06
2022-10-08T11:55:52.878Z,101978.66
2022-10-08T11:58:24.746Z,101979.25
2022-10-08T12:01:01.557Z,101974.13
2022-10-08T12:03:33.968Z,101973.25
2022-10-08T12:06:16.491Z,101968.66
2022-10-08T12:08:57.220Z,101968.88
2022-10-08T12:11:48.361Z,101962.16
2022-10-08T12:14:35.114Z,101964.22
2022-10-08T12:17:10.999Z,101962.88
2022-10-08T12:20:07.676Z,101965.97
2022-10-08T12:22:44.578Z,101955.84
2022-10-08T12:25:44.269Z,101972.81
2022-10-08T12:28:50.179Z,101974.84
2022-10-08T12:31:30.721Z,101968.16
2022-10-08T12:34:01.705Z,101974.91
2022-10-08T12:36:44.605Z,101981.06
2022-10-08T12:39:29.917Z,101984.09
2022-10-08T12:42:08.482Z,101987.81
2022-10-08T12:44:48.990Z,101995.25
2022-10-08T12:47:28.281Z,101994.06
2022-10-08T12:50:04.164Z,101986.56
2022-10-08T12:52:36.033Z,101988.84
2022-10-08T12:55:06.232Z,101989.88
2022-10-08T12:57:41.751Z,101995.38
2022-10-08T13:00:22.949Z,102008.41
2022-10-08T13:03:00.874Z,102021.59
2022-10-08T13:05:31.492Z,102017.69
2022-10-08T13:07:59.992Z,102024.69
2022-10-08T13:10:30.445Z,102020.72
2022-10-08T13:13:04.723Z,102022.25
2022-10-08T13:15:34.234Z,102014.56
2022-10-08T13:18:14.299Z,102020.59
2022-10-08T13:20:56.539Z,102020.19
2022-10-08T13:23:34.394Z,102019.84
2022-10-08T13:26:02.581Z,102017.66
2022-10-08T13:28:59.426Z,102024.19
2022-10-08T13:31:24.888Z,102025.44
2022-10-08T13:33:53.312Z,102021.19
2022-10-08T13:36:24.097Z,102017.78
2022-10-08T13:38:52.341Z,102019.22
2022-10-08T13:41:24.217Z,102023.53
2022-10-08T13:43:53.669Z,102017.19
2022-10-08T13:46:21.892Z,102024.25
2022-10-08T13:48:49.951Z,102024.56
2022-10-08T13:51:18.101Z,102029.34
2022-10-08T13:53:46.262Z,102033.97
2022-10-08T13:56:14.995Z,102034.13
2022-10-08T13:58:43.323Z,102034.47
2022-10-08T14:01:12.861Z,102041.03
2022-10-08T14:03:41.076Z,102047.09
2022-10-08T14:06:09.006Z,102042.59
2022-10-08T14:08:37.689Z,102065.97
2022-10-08T14:11:05.734Z,102068.09
2022-10-08T14:13:34.381Z,102067.19
2022-10-08T14:16:02.438Z,102069.22
2022-10-08T14:18:32.376Z,102079.66
2022-10-08T14:21:00.581Z,102074.78
2022-10-08T14:23:28.621Z,102066.16
2022-10-08T14:25:56.873Z,102078.66
2022-10-08T14:28:25.570Z,102079.06
2022-10-08T14:30:53.856Z,102069.97
2022-10-08T14:33:22.258Z,102070.75
2022-10-08T14:35:54.438Z,102066.81
2022-10-08T14:38:22.463Z,102072.50
2022-10-08T14:40:50.483Z,102073.00
2022-10-08T14:43:18.467Z,102077.97
2022-10-08T14:45:46.479Z,102070.03
2022-10-08T14:48:14.520Z,102084.16
2022-10-08T14:50:42.605Z,102074.53
2022-10-08T14:53:12.325Z,102074.75
2022-10-08T14:56:00.551Z,102085.19
2022-10-08T14:58:28.455Z,102094.81
2022-10-08T15:00:56.483Z,102093.56
2022-10-08T15:03:24.726Z,102096.16
2022-10-08T15:05:54.971Z,102105.94
2022-10-08T15:08:24.588Z,102105.31
2022-10-08T15:10:52.459Z,102112.88
2022-10-08T15:13:20.622Z,102107.84
2022-10-08T15:15:48.504Z,102112.50
2022-10-08T15:18:17.043Z,102102.53
2022-10-08T15:20:45.072Z,102105.84
2022-10-08T15:23:13.731Z,102107.06
2022-10-08T15:25:43.375Z,102116.47
2022-10-08T15:28:12.313Z,102112.88
2022-10-08T15:30:41.022Z,102110.66
2022-10-08T15:33:09.060Z,102118.19
2022-10-08T15:35:37.253Z,102117.50
2022-10-08T15:38:05.892Z,102126.75
2022-10-08T15:40:33.958Z,102132.22
2022-10-08T15:43:04.619Z,102130.72
2022-10-08T15:45:33.121Z,102136.00
2022-10-08T15:48:01.804Z,102142.34
2022-10-08T15:50:30.119Z,102140.63
2022-10-08T15:52:58.098Z,102140.72
2022-10-08T15:55:26.167Z,102147.25
2022-10-08T15:57:54.086Z,102153.31
2022-10-08T16:00:23.984Z,102159.25
2022-10-08T16:02:52.573Z,102166.75
2022-10-08T16:05:22.158Z,102162.69
2022-10-08T16:07:50.456Z,102161.53
2022-10-08T16:10:18.565Z,102163.81
2022-10-08T16:12:47.146Z,102174.66
2022-10-08T16:15:15.487Z,102169.97
2022-10-08T16:17:45.134Z,102171.94
2022-10-08T16:20:13.921Z,102169.56
2022-10-08T16:22:42.180Z,102173.13
2022-10-08T16:25:11.230Z,102171.59
2022-10-08T16:27:40.137Z,102181.25
2022-10-08T16:30:09.553Z,102183.97
2022-10-08T16:32:38.015Z,102186.19
2022-10-08T16:35:08.198Z,102181.13
2022-10-08T16:37:36.922Z,102194.78
2022-10-08T16:40:05.485Z,102193.97
2022-10-08T16:42:33.597Z,102192.00
2022-10-08T16:45:01.569Z,102198.94
2022-10-08T16:47:29.736Z,102206.28
2022-10-08T16:49:57.684Z,102195.50
2022-10-08T16:52:27.061Z,102204.19
2022-10-08T16:54:55.606Z,102211.44
2022-10-08T16:57:24.795Z,102223.59
2022-10-08T16:59:52.806Z,102221.09
2022-10-08T17:02:25.628Z,102223.84
2022-10-08T17:04:56.938Z,102223.91
2022-10-08T17:07:24.968Z,102234.56
2022-10-08T17:09:54.987Z,102232.19
2022-10-08T17:12:22.983Z,102231.16
2022-10-08T17:14:51.071Z,102235.03
2022-10-08T17:17:19.060Z,102237.63
2022-10-08T17:19:47.180Z,102239.66
2022-10-08T17:22:16.835Z,102240.75
2022-10-08T17:24:44.888Z,102241.41
2022-10-08T17:27:14.321Z,102251.59
2022-10-08T17:29:42.257Z,102244.22
2022-10-08T17:32:11.731Z,102252.59
2022-10-08T17:34:42.098Z,102261.00
2022-10-08T17:37:10.846Z,102264.75
2022-10-08T17:39:39.016Z,102263.88
2022-10-08T17:42:07.425Z,102273.06
2022-10-08T17:44:36.936Z,102280.75
2022-10-08T17:47:09.579Z,102283.63
2022-10-08T17:49:37.899Z,102284.50
2022-10-08T17:52:06.049Z,102287.22
2022-10-08T17:54:33.989Z,102288.34
2022-10-08T17:57:03.192Z,102288.75
2022-10-08T17:59:31.316Z,102287.00
2022-10-08T18:02:00.702Z,102281.66
2022-10-08T18:04:29.106Z,102290.75
2022-10-08T18:07:02.497Z,102296.47
2022-10-08T18:09:31.275Z,102292.50
2022-10-08T18:11:59.277Z,102296.16
2022-10-08T18:14:27.177Z,102300.50
2022-10-08T18:16:55.095Z,102302.78
2022-10-08T18:19:24.767Z,102305.75
2022-10-08T18:21:52.856Z,102306.19
2022-10-08T18:24:21.203Z,102309.72
2022-10-08T18:26:51.506Z,102312.31
2022-10-08T18:29:19.874Z,102316.16
2022-10-08T18:31:47.984Z,102318.91
2022-10-08T18:34:17.982Z,102320.06
2022-10-08T18:36:47.770Z,102324.31
2022-10-08T18:39:17.365Z,102325.88
2022-10-08T18:41:47.233Z,102324.13
2022-10-08T18:44:17.811Z,102331.03
2022-10-08T18:46:46.045Z,102323.72
2022-10-08T18:49:16.058Z,102334.78
2022-10-08T18:51:44.653Z,102339.66
2022-10-08T18:54:14.159Z,102335.72
2022-10-08T18:56:42.784Z,102334.41
2022-10-08T18:59:13.580Z,102333.53
2022-10-08T19:01:43.643Z,102328.38
2022-10-08T19:04:14.465Z,102341.94
2022-10-08T19:06:44.051Z,102342.50
2022-10-08T19:09:12.129Z,102345.53
2022-10-08T19:11:45.215Z,102345.59
2022-10-08T19:14:15.767Z,102350.00
2022-10-08T19:16:44.743Z,102349.75
2022-10-08T19:19:15.140Z,102362.44
2022-10-08T19:21:43.883Z,102361.22
2022-10-08T19:24:15.730Z,102362.69
2022-10-08T19:26:45.948Z,102361.81
2022-10-08T19:29:16.568Z,102366.19
2022-10-08T19:31:47.562Z,102373.03
2022-10-08T19:34:17.632Z,102373.03
2022-10-08T19:36:46.805Z,102368.41
2022-10-08T19:39:16.987Z,102372.91
2022-10-08T19:41:47.204Z,102378.94
2022-10-08T19:44:16.495Z,102372.16
2022-10-08T19:46:44.980Z,102377.63
2022-10-08T19:49:13.894Z,102383.81
2022-10-08T19:51:42.320Z,102386.00
2022-10-08T19:54:11.275Z,102392.78
2022-10-08T19:56:39.444Z,102388.66
2022-10-08T19:59:11.167Z,102396.19
2022-10-08T20:01:41.735Z,102391.56
2022-10-08T20:04:11.273Z,102395.63
2022-10-08T20:06:41.216Z,102390.69
2022-10-08T20:09:12.895Z,102395.00
2022-10-08T20:11:42.251Z,102408.81
2022-10-08T20:14:12.655Z,102399.44
2022-10-08T20:16:42.558Z,102407.22
2022-10-08T20:19:16.705Z,102408.22
2022-10-08T20:21:45.498Z,102407.22
2022-10-08T20:24:13.861Z,102414.56
2022-10-08T20:26:43.624Z,102412.69
2022-10-08T20:29:15.030Z,102404.78
2022-10-08T20:31:44.471Z,102412.56
2022-10-08T20:34:14.639Z,102411.44
2022-10-08T20:36:43.040Z,102411.00
2022-10-08T20:39:12.630Z,102405.66
2022-10-08T20:41:40.697Z,102413.59
2022-10-08T20:44:09.769Z,102421.00
2022-10-08T20:46:39.637Z,102414.69
2022-10-08T20:49:07.817Z,102417.88
2022-10-08T20:51:36.233Z,102413.28
2022-10-08T20:54:06.915Z,102412.81
2022-10-08T20:56:39.716Z,102411.69
2022-10-08T20:59:09.288Z,102416.75
2022-10-08T21:01:39.697Z,102420.38
2022-10-08T21:04:08.794Z,102422.53
2022-10-08T21:06:39.281Z,102432.06
2022-10-08T21:09:08.116Z,102431.34
2022-10-08T21:11:37.247Z,102435.94
2022-10-08T21:14:07.062Z,102441.56
2022-10-08T21:16:37.452Z,102446.63
2022-10-08T21:19:09.103Z,102444.03
2022-10-08T21:21:37.628Z,102445.63
2022-10-08T21:24:06.333Z,102445.88
2022-10-08T21:26:36.642Z,102446.19
2022-10-08T21:29:07.106Z,102453.22
2022-10-08T21:31:36.895Z,102449.91
2022-10-08T21:34:05.968Z,102446.72
2022-10-08T21:36:37.539Z,102453.50
2022-10-08T21:39:07.591Z,102449.63
2022-10-08T21:41:37.440Z,102446.28
2022-10-08T21:44:08.166Z,102450.63
2022-10-08T21:46:38.280Z,102455.22
2022-10-08T21:49:08.788Z,102455.38
2022-10-08T21:51:38.470Z,102460.56
2022-10-08T21:54:07.978Z,102460.41
2022-10-08T21:56:38.252Z,102457.53
2022-10-08T21:59:08.200Z,102457.75
2022-10-08T22:01:38.380Z,102453.03
2022-10-08T22:04:08.176Z,102455.19
2022-10-08T22:06:40.225Z,102454.22
2022-10-08T22:09:11.837Z,102453.59
2022-10-08T22:11:40.070Z,102457.63
2022-10-08T22:14:08.681Z,102464.28
2022-10-08T22:16:37.393Z,102461.00
2022-10-08T22:19:19.005Z,102460.03
2022-10-08T22:21:50.825Z,102458.69
2022-10-08T22:24:19.682Z,102456.53
2022-10-08T22:26:58.891Z,102456.16
2022-10-08T22:29:27.060Z,102464.53
2022-10-08T22:31:55.294Z,102461.38
2022-10-08T22:34:28.858Z,102456.38
2022-10-08T22:37:01.260Z,102453.63
2022-10-08T22:39:31.082Z,102461.34
2022-10-08T22:41:59.603Z,102453.72
2022-10-08T22:44:33.874Z,102461.31
2022-10-08T22:47:08.891Z,102462.81
2022-10-08T22:49:37.528Z,102461.66
2022-10-08T22:52:13.031Z,102466.09
2022-10-08T22:54:48.636Z,102459.19
2022-10-08T22:57:31.705Z,102463.09
2022-10-08T23:00:01.533Z,102464.13
2022-10-08T23:02:35.736Z,102461.84
2022-10-08T23:05:09.801Z,102460.53
2022-10-08T23:07:41.094Z,102465.97
2022-10-08T23:10:11.354Z,102460.97
2022-10-08T23:12:45.036Z,102459.97
2022-10-08T23:15:13.771Z,102463.13
2022-10-08T23:17:42.563Z,102463.41
2022-10-08T23:20:11.084Z,102474.34
2022-10-08T23:22:40.762Z,102462.09
2022-10-08T23:25:10.309Z,102468.00
2022-10-08T23:27:38.476Z,102461.09
2022-10-08T23:30:20.743Z,102461.66
2022-10-08T23:32:55.557Z,102462.69
2022-10-08T23:35:23.474Z,102462.38
2022-10-08T23:37:52.748Z,102463.38
2022-10-08T23:40:20.754Z,102464.38
2022-10-08T23:42:48.919Z,102465.13
2022-10-08T23:45:17.137Z,102465.72
2022-10-08T23:47:45.367Z,102464.56
2022-10-08T23:50:13.929Z,102468.16
2022-10-08T23:52:42.288Z,102474.91
2022-10-08T23:55:12.552Z,102477.06
2022-10-08T23:57:40.455Z,102472.19
